createdAt,value
2023-06-04T00:01:19.533Z,100490.09
2023-06-04T00:04:23.494Z,100487.88
2023-06-04T00:07:25.816Z,100485.47
2023-06-04T00:10:27.975Z,100483.09
2023-06-04T00:13:30.342Z,100483.19
2023-06-04T00:16:32.978Z,100491.94
2023-06-04T00:19:35.167Z,100493.03
2023-06-04T00:22:37.874Z,100488.75
2023-06-04T00:25:41.594Z,100480.16
2023-06-04T00:28:43.778Z,100493.13
2023-06-04T00:31:46.173Z,100488.22
2023-06-04T00:34:52.751Z,100472.44
2023-06-04T00:37:54.935Z,100477.84
2023-06-04T00:40:57.174Z,100462.09
2023-06-04T00:44:02.923Z,100478.88
2023-06-04T00:47:05.439Z,100486.00
2023-06-04T00:50:08.967Z,100491.75
2023-06-04T00:53:11.904Z,100486.63
2023-06-04T00:56:14.308Z,100482.53
2023-06-04T00:59:17.688Z,100475.66
2023-06-04T01:02:23.734Z,100480.56
2023-06-04T01:05:43.425Z,100476.28
2023-06-04T01:08:45.647Z,100472.81
2023-06-04T01:11:47.825Z,100478.81
2023-06-04T01:14:50.279Z,100475.81
2023-06-04T01:17:58.510Z,100463.19
2023-06-04T01:21:02.245Z,100477.59
2023-06-04T01:24:08.016Z,100477.59
2023-06-04T01:27:10.313Z,100480.66
2023-06-04T01:30:13.295Z,100490.81
2023-06-04T01:33:20.079Z,100473.75
2023-06-04T01:36:22.357Z,100477.00
2023-06-04T01:39:27.416Z,100480.31
2023-06-04T01:42:29.609Z,100483.94
2023-06-04T01:45:31.915Z,100484.16
2023-06-04T01:48:35.036Z,100485.28
2023-06-04T01:51:37.942Z,100485.59
2023-06-04T01:54:41.860Z,100492.38
2023-06-04T01:57:51.573Z,100485.34
2023-06-04T02:01:01.299Z,100477.47
2023-06-04T02:04:03.850Z,100483.47
2023-06-04T02:07:08.023Z,100488.59
2023-06-04T02:10:11.146Z,100483.53
2023-06-04T02:13:13.624Z,100481.88
2023-06-04T02:16:15.965Z,100484.38
2023-06-04T02:19:19.950Z,100488.41
2023-06-04T02:22:22.141Z,100484.13
2023-06-04T02:25:24.664Z,100487.63
2023-06-04T02:28:27.219Z,100491.38
2023-06-04T02:31:29.408Z,100484.44
2023-06-04T02:34:31.859Z,100487.44
2023-06-04T02:37:34.062Z,100499.13
2023-06-04T02:40:36.271Z,100502.69
2023-06-04T02:43:38.576Z,100502.41
2023-06-04T02:46:41.101Z,100502.06
2023-06-04T02:49:43.380Z,100498.56
2023-06-04T02:52:46.110Z,100492.84
2023-06-04T02:55:48.375Z,100499.09
2023-06-04T02:58:56.318Z,100497.22
2023-06-04T03:01:58.522Z,100493.44
2023-06-04T03:05:00.718Z,100493.75
2023-06-04T03:08:03.965Z,100499.16
2023-06-04T03:11:06.532Z,100506.41
2023-06-04T03:14:08.937Z,100499.66
2023-06-04T03:17:12.085Z,100489.03
2023-06-04T03:20:14.358Z,100488.72
2023-06-04T03:23:16.604Z,100493.56
2023-06-04T03:26:18.998Z,100490.25
2023-06-04T03:29:22.227Z,100492.13
2023-06-04T03:32:25.928Z,100475.41
2023-06-04T03:35:28.199Z,100510.63
2023-06-04T03:38:30.709Z,100514.19
2023-06-04T03:41:34.135Z,100524.50
2023-06-04T03:44:36.412Z,100522.91
2023-06-04T03:47:40.058Z,100512.09
2023-06-04T03:50:43.673Z,100515.50
2023-06-04T03:53:46.608Z,100513.34
2023-06-04T03:56:48.892Z,100513.56
2023-06-04T03:59:51.301Z,100524.56
2023-06-04T04:02:53.702Z,100530.75
2023-06-04T04:06:02.796Z,100529.66
2023-06-04T04:09:06.784Z,100531.50
2023-06-04T04:12:09.609Z,100532.00
2023-06-04T04:15:12.143Z,100536.84
2023-06-04T04:18:14.588Z,100525.97
2023-06-04T04:21:17.802Z,100527.78
2023-06-04T04:24:25.553Z,100530.97
2023-06-04T04:27:31.452Z,100539.19
2023-06-04T04:30:37.799Z,100548.72
2023-06-04T04:33:41.624Z,100543.09
2023-06-04T04:36:52.974Z,100542.22
2023-06-04T04:39:56.269Z,100541.03
2023-06-04T04:43:00.539Z,100541.25
2023-06-04T04:46:03.624Z,100541.50
2023-06-04T04:49:07.063Z,100547.38
2023-06-04T04:52:09.565Z,100554.44
2023-06-04T04:55:14.048Z,100559.31
2023-06-04T04:58:18.348Z,100552.16
2023-06-04T05:01:21.503Z,100552.69
2023-06-04T05:04:23.841Z,100544.66
2023-06-04T05:07:27.158Z,100554.81
2023-06-04T05:10:30.371Z,100553.19
2023-06-04T05:13:35.184Z,100559.16
2023-06-04T05:16:43.558Z,100553.78
2023-06-04T05:19:47.148Z,100553.94
2023-06-04T05:22:49.517Z,100552.91
2023-06-04T05:25:53.335Z,100549.81
2023-06-04T05:28:59.122Z,100561.94
2023-06-04T05:32:04.111Z,100566.81
2023-06-04T05:35:08.208Z,100562.75
2023-06-04T05:38:10.609Z,100563.06
2023-06-04T05:41:13.139Z,100569.53
2023-06-04T05:44:16.562Z,100577.41
2023-06-04T05:47:19.401Z,100577.69
2023-06-04T05:50:22.048Z,100579.06
2023-06-04T05:53:24.341Z,100577.44
2023-06-04T05:56:27.791Z,100572.38
2023-06-04T05:59:31.626Z,100567.50
2023-06-04T06:02:33.896Z,100570.75
2023-06-04T06:05:36.396Z,100576.56
2023-06-04T06:08:38.683Z,100577.59
2023-06-04T06:11:41.131Z,100578.56
2023-06-04T06:14:43.510Z,100574.13
2023-06-04T06:17:45.950Z,100575.06
2023-06-04T06:20:48.570Z,100574.00
2023-06-04T06:23:50.877Z,100570.81
2023-06-04T06:26:53.334Z,100580.13
2023-06-04T06:29:56.679Z,100586.72
2023-06-04T06:32:59.029Z,100571.38
2023-06-04T06:36:01.329Z,100584.56
2023-06-04T06:39:03.723Z,100580.16
2023-06-04T06:42:06.004Z,100578.53
2023-06-04T06:45:13.340Z,100579.06
2023-06-04T06:48:15.593Z,100590.34
2023-06-04T06:51:17.996Z,100583.78
2023-06-04T06:54:22.747Z,100589.66
2023-06-04T06:57:25.265Z,100592.06
2023-06-04T07:00:29.158Z,100599.13
2023-06-04T07:03:32.323Z,100602.69
2023-06-04T07:06:35.350Z,100613.50
2023-06-04T07:09:37.546Z,100594.59
2023-06-04T07:12:42.827Z,100598.53
2023-06-04T07:15:45.946Z,100615.72
2023-06-04T07:18:51.201Z,100599.63
2023-06-04T07:21:55.308Z,100607.13
2023-06-04T07:24:57.561Z,100613.19
2023-06-04T07:27:59.803Z,100612.56
2023-06-04T07:31:02.005Z,100610.16
2023-06-04T07:34:04.247Z,100605.81
2023-06-04T07:37:06.538Z,100605.41
2023-06-04T07:40:09.241Z,100607.75
2023-06-04T07:43:11.412Z,100610.78
2023-06-04T07:46:13.681Z,100605.59
2023-06-04T07:49:16.259Z,100611.41
2023-06-04T07:52:18.430Z,100611.69
2023-06-04T07:55:21.121Z,100601.16
2023-06-04T07:58:23.450Z,100612.88
2023-06-04T08:01:25.677Z,100612.84
2023-06-04T08:04:28.097Z,100611.00
2023-06-04T08:07:30.979Z,100617.94
2023-06-04T08:10:33.190Z,100615.41
2023-06-04T08:13:35.408Z,100613.53
2023-06-04T08:16:37.623Z,100617.25
2023-06-04T08:19:39.843Z,100612.94
2023-06-04T08:22:42.072Z,100616.75
2023-06-04T08:25:44.342Z,100604.84
2023-06-04T08:28:50.227Z,100621.16
2023-06-04T08:31:52.591Z,100617.50
2023-06-04T08:34:55.748Z,100611.63
2023-06-04T08:37:58.508Z,100609.56
2023-06-04T08:41:11.329Z,100614.56
2023-06-04T08:44:13.650Z,100611.13
2023-06-04T08:47:16.963Z,100618.41
2023-06-04T08:50:24.017Z,100612.50
2023-06-04T08:53:26.563Z,100614.94
2023-06-04T08:56:33.853Z,100605.97
2023-06-04T08:59:36.855Z,100601.97
2023-06-04T09:02:39.295Z,100597.81
2023-06-04T09:05:43.344Z,100598.59
2023-06-04T09:08:53.783Z,100607.50
2023-06-04T09:12:02.805Z,100607.00
2023-06-04T09:15:05.197Z,100597.19
2023-06-04T09:18:07.544Z,100605.41
2023-06-04T09:21:12.774Z,100606.19
2023-06-04T09:24:15.011Z,100608.75
2023-06-04T09:27:18.997Z,100603.94
2023-06-04T09:30:21.270Z,100599.22
2023-06-04T09:33:24.616Z,100605.19
2023-06-04T09:36:31.662Z,100599.56
2023-06-04T09:39:33.919Z,100613.22
2023-06-04T09:42:56.229Z,100619.31
2023-06-04T09:46:10.246Z,100611.94
2023-06-04T09:49:12.518Z,100609.84
2023-06-04T09:52:15.156Z,100608.53
2023-06-04T09:55:20.834Z,100619.28
2023-06-04T09:58:24.311Z,100611.53
2023-06-04T10:01:28.280Z,100613.59
2023-06-04T10:04:30.620Z,100615.34
2023-06-04T10:07:35.522Z,100611.78
2023-06-04T10:10:39.252Z,100612.25
2023-06-04T10:13:56.230Z,100618.44
2023-06-04T10:16:59.758Z,100623.91
2023-06-04T10:20:05.690Z,100619.94
2023-06-04T10:23:09.014Z,100608.50
2023-06-04T10:26:11.297Z,100611.63
2023-06-04T10:29:13.970Z,100614.16
2023-06-04T10:32:16.641Z,100617.72
2023-06-04T10:35:19.014Z,100616.38
2023-06-04T10:38:22.875Z,100606.09
2023-06-04T10:41:26.070Z,100608.50
2023-06-04T10:44:28.552Z,100610.41
2023-06-04T10:47:31.828Z,100610.09
2023-06-04T10:50:35.156Z,100610.72
2023-06-04T10:53:38.235Z,100618.81
2023-06-04T10:56:40.443Z,100610.00
2023-06-04T10:59:42.717Z,100611.00
2023-06-04T11:02:56.423Z,100609.75
2023-06-04T11:05:58.755Z,100613.44
2023-06-04T11:09:04.904Z,100601.56
2023-06-04T11:12:07.682Z,100610.94
2023-06-04T11:15:10.635Z,100606.34
2023-06-04T11:18:20.438Z,100607.78
2023-06-04T11:21:22.918Z,100609.59
2023-06-04T11:24:25.149Z,100609.25
2023-06-04T11:27:36.225Z,100607.34
2023-06-04T11:30:40.966Z,100607.34
2023-06-04T11:33:47.386Z,100614.59
2023-06-04T11:36:50.829Z,100605.75
2023-06-04T11:39:53.066Z,100607.66
2023-06-04T11:42:55.945Z,100605.44
2023-06-04T11:45:58.930Z,100613.34
2023-06-04T11:49:01.371Z,100610.59
2023-06-04T11:52:03.817Z,100609.13
2023-06-04T11:55:09.309Z,100607.81
2023-06-04T11:58:11.648Z,100619.22
2023-06-04T12:01:14.453Z,100603.41
2023-06-04T12:04:18.076Z,100615.31
2023-06-04T12:07:22.722Z,100612.41
2023-06-04T12:10:25.400Z,100613.34
2023-06-04T12:13:27.684Z,100618.03
2023-06-04T12:16:30.017Z,100608.03
2023-06-04T12:19:32.648Z,100611.91
2023-06-04T12:22:46.270Z,100617.66
2023-06-04T12:25:51.985Z,100613.44
2023-06-04T12:29:03.445Z,100611.69
2023-06-04T12:32:12.533Z,100612.84
2023-06-04T12:35:16.807Z,100608.31
2023-06-04T12:38:19.265Z,100607.97
2023-06-04T12:41:21.515Z,100614.75
2023-06-04T12:44:23.784Z,100617.50
2023-06-04T12:47:26.204Z,100612.84
2023-06-04T12:50:28.375Z,100606.22
2023-06-04T12:53:31.799Z,100601.25
2023-06-04T12:56:34.017Z,100599.00
2023-06-04T12:59:36.418Z,100593.53
2023-06-04T13:02:38.735Z,100595.34
2023-06-04T13:05:41.028Z,100590.69
2023-06-04T13:08:43.939Z,100594.69
2023-06-04T13:11:46.438Z,100594.53
2023-06-04T13:14:48.693Z,100594.41
2023-06-04T13:17:50.927Z,100594.41
2023-06-04T13:20:53.173Z,100588.94
2023-06-04T13:23:57.151Z,100587.47
2023-06-04T13:26:59.355Z,100583.16
2023-06-04T13:30:01.583Z,100576.25
2023-06-04T13:33:04.504Z,100582.56
2023-06-04T13:36:07.172Z,100569.22
2023-06-04T13:39:09.341Z,100577.97
2023-06-04T13:42:11.564Z,100565.78
2023-06-04T13:45:14.186Z,100567.09
2023-06-04T13:48:16.645Z,100568.03
2023-06-04T13:51:18.880Z,100566.28
2023-06-04T13:54:21.081Z,100567.22
2023-06-04T13:57:23.307Z,100568.16
2023-06-04T14:00:25.598Z,100562.22
2023-06-04T14:03:27.936Z,100563.03
2023-06-04T14:06:30.221Z,100556.38
2023-06-04T14:09:32.369Z,100558.81
2023-06-04T14:12:34.558Z,100549.50
2023-06-04T14:15:37.073Z,100547.22
2023-06-04T14:18:39.264Z,100549.34
2023-06-04T14:21:42.037Z,100541.63
2023-06-04T14:24:44.378Z,100545.19
2023-06-04T14:27:46.580Z,100532.47
2023-06-04T14:30:48.923Z,100544.53
2023-06-04T14:33:51.133Z,100543.38
2023-06-04T14:36:53.366Z,100535.97
2023-06-04T14:39:55.801Z,100536.47
2023-06-04T14:42:58.613Z,100533.56
2023-06-04T14:46:00.883Z,100524.69
2023-06-04T14:49:03.289Z,100533.22
2023-06-04T14:52:05.564Z,100525.97
2023-06-04T14:55:08.068Z,100530.00
2023-06-04T14:58:10.285Z,100530.31
2023-06-04T15:01:12.589Z,100525.97
2023-06-04T15:04:15.365Z,100525.16
2023-06-04T15:07:17.605Z,100526.06
2023-06-04T15:10:19.873Z,100530.44
2023-06-04T15:13:22.077Z,100516.72
2023-06-04T15:16:24.380Z,100513.50
2023-06-04T15:19:26.666Z,100507.53
2023-06-04T15:22:28.952Z,100509.94
2023-06-04T15:25:31.239Z,100509.94
2023-06-04T15:28:33.456Z,100512.19
2023-06-04T15:31:35.800Z,100512.16
2023-06-04T15:34:38.066Z,100510.69
2023-06-04T15:37:40.377Z,100505.03
2023-06-04T15:40:42.557Z,100507.00
2023-06-04T15:43:44.813Z,100507.28
2023-06-04T15:46:47.021Z,100508.25
2023-06-04T15:49:49.229Z,100507.59
2023-06-04T15:52:51.410Z,100511.44
2023-06-04T15:55:53.582Z,100504.19
2023-06-04T15:58:55.802Z,100497.50
2023-06-04T16:01:58.120Z,100501.22
2023-06-04T16:05:00.515Z,100503.63
2023-06-04T16:08:02.752Z,100497.00
2023-06-04T16:11:05.121Z,100496.84
2023-06-04T16:14:07.389Z,100498.47
2023-06-04T16:17:09.626Z,100491.69
2023-06-04T16:20:11.950Z,100489.59
2023-06-04T16:23:14.396Z,100493.94
2023-06-04T16:26:16.621Z,100491.34
2023-06-04T16:29:18.835Z,100497.31
2023-06-04T16:32:21.204Z,100491.34
2023-06-04T16:35:23.669Z,100498.41
2023-06-04T16:38:25.880Z,100502.72
2023-06-04T16:41:28.134Z,100501.91
2023-06-04T16:44:30.379Z,100500.63
2023-06-04T16:47:33.642Z,100494.50
2023-06-04T16:50:35.975Z,100506.84
2023-06-04T16:53:38.165Z,100503.44
2023-06-04T16:56:41.875Z,100504.06
2023-06-04T16:59:47.580Z,100500.22
2023-06-04T17:02:49.770Z,100494.53
2023-06-04T17:05:52.046Z,100491.66
2023-06-04T17:08:54.334Z,100494.53
2023-06-04T17:11:56.626Z,100496.13
2023-06-04T17:14:58.920Z,100498.38
2023-06-04T17:18:01.976Z,100498.66
2023-06-04T17:21:04.406Z,100493.53
2023-06-04T17:24:06.815Z,100504.13
2023-06-04T17:27:09.357Z,100498.31
2023-06-04T17:30:12.011Z,100502.34
2023-06-04T17:33:14.305Z,100505.88
2023-06-04T17:36:16.477Z,100501.38
2023-06-04T17:39:18.645Z,100497.09
2023-06-04T17:42:20.824Z,100508.03
2023-06-04T17:45:23.075Z,100503.81
2023-06-04T17:48:25.408Z,100504.88
2023-06-04T17:51:27.564Z,100505.19
2023-06-04T17:54:29.756Z,100490.22
2023-06-04T17:57:31.958Z,100503.69
2023-06-04T18:00:34.530Z,100503.69
2023-06-04T18:03:39.284Z,100504.00
2023-06-04T18:06:41.452Z,100497.53
2023-06-04T18:09:44.124Z,100506.63
2023-06-04T18:12:46.704Z,100508.88
2023-06-04T18:15:49.443Z,100500.81
2023-06-04T18:18:51.626Z,100499.19
2023-06-04T18:21:54.093Z,100505.94
2023-06-04T18:24:56.308Z,100507.06
2023-06-04T18:27:58.492Z,100505.56
2023-06-04T18:31:00.947Z,100502.44
2023-06-04T18:34:03.442Z,100512.84
2023-06-04T18:37:05.995Z,100508.03
2023-06-04T18:40:13.516Z,100508.22
2023-06-04T18:43:16.343Z,100522.25
2023-06-04T18:46:19.257Z,100530.16
2023-06-04T18:49:22.974Z,100529.91
2023-06-04T18:52:25.622Z,100541.13
2023-06-04T18:55:27.799Z,100539.53
2023-06-04T18:58:30.024Z,100537.53
2023-06-04T19:01:32.260Z,100541.66
2023-06-04T19:04:37.390Z,100541.34
2023-06-04T19:07:40.852Z,100551.78
2023-06-04T19:10:46.461Z,100553.00
2023-06-04T19:13:48.822Z,100555.22
2023-06-04T19:16:51.938Z,100554.72
2023-06-04T19:19:54.555Z,100547.13
2023-06-04T19:22:56.734Z,100551.06
2023-06-04T19:25:58.902Z,100557.13
2023-06-04T19:29:01.389Z,100559.97
2023-06-04T19:32:03.733Z,100549.84
2023-06-04T19:35:06.810Z,100546.84
2023-06-04T19:38:09.071Z,100552.28
2023-06-04T19:41:11.265Z,100545.00
2023-06-04T19:44:13.481Z,100550.25
2023-06-04T19:47:15.784Z,100553.00
2023-06-04T19:50:18.525Z,100564.47
2023-06-04T19:53:20.699Z,100556.41
2023-06-04T19:56:22.901Z,100550.13
2023-06-04T19:59:25.054Z,100553.69
2023-06-04T20:02:27.251Z,100552.28
2023-06-04T20:05:30.038Z,100558.31
2023-06-04T20:08:32.758Z,100545.81
2023-06-04T20:11:35.975Z,100554.00
2023-06-04T20:14:38.257Z,100549.94
2023-06-04T20:17:40.499Z,100549.44
2023-06-04T20:20:42.784Z,100556.53
2023-06-04T20:23:46.723Z,100561.34
2023-06-04T20:26:49.124Z,100558.22
2023-06-04T20:29:51.814Z,100553.19
2023-06-04T20:32:56.743Z,100545.63
2023-06-04T20:35:59.262Z,100548.34
2023-06-04T20:39:01.601Z,100554.38
2023-06-04T20:42:03.944Z,100536.19
2023-06-04T20:45:06.803Z,100544.88
2023-06-04T20:48:09.089Z,100543.28
2023-06-04T20:51:11.450Z,100548.22
2023-06-04T20:54:14.195Z,100541.41
2023-06-04T20:57:16.402Z,100553.13
2023-06-04T21:00:18.728Z,100549.88
2023-06-04T21:03:21.511Z,100549.19
2023-06-04T21:06:23.799Z,100543.72
2023-06-04T21:09:26.084Z,100539.88
2023-06-04T21:12:28.258Z,100549.59
2023-06-04T21:15:30.479Z,100547.16
2023-06-04T21:18:32.692Z,100547.47
2023-06-04T21:21:34.874Z,100545.34
2023-06-04T21:24:37.111Z,100548.25
2023-06-04T21:27:39.507Z,100550.75
2023-06-04T21:30:41.974Z,100552.38
2023-06-04T21:33:44.205Z,100556.44
2023-06-04T21:36:46.405Z,100553.41
2023-06-04T21:39:48.572Z,100549.03
2023-06-04T21:42:51.458Z,100559.22
2023-06-04T21:45:54.294Z,100556.50
2023-06-04T21:48:56.481Z,100566.59
2023-06-04T21:51:58.631Z,100556.09
2023-06-04T21:55:00.866Z,100559.31
2023-06-04T21:58:04.550Z,100561.22
2023-06-04T22:01:07.078Z,100561.53
2023-06-04T22:04:09.724Z,100562.63
2023-06-04T22:07:11.962Z,100562.41
2023-06-04T22:10:14.232Z,100566.25
2023-06-04T22:13:16.598Z,100560.22
2023-06-04T22:16:18.978Z,100567.06
2023-06-04T22:19:21.253Z,100563.81
2023-06-04T22:22:23.489Z,100574.22
2023-06-04T22:25:25.909Z,100570.47
2023-06-04T22:28:28.150Z,100577.53
2023-06-04T22:31:30.708Z,100575.09
2023-06-04T22:34:33.061Z,100564.28
2023-06-04T22:37:35.473Z,100570.53
2023-06-04T22:40:37.973Z,100573.88
2023-06-04T22:43:40.148Z,100569.00
2023-06-04T22:46:42.467Z,100569.00
2023-06-04T22:49:44.710Z,100560.63
2023-06-04T22:52:46.967Z,100566.59
2023-06-04T22:55:49.286Z,100566.59
2023-06-04T22:58:51.651Z,100559.06
2023-06-04T23:01:54.794Z,100558.06
2023-06-04T23:04:57.156Z,100567.53
2023-06-04T23:07:59.333Z,100572.13
2023-06-04T23:11:01.605Z,100565.34
2023-06-04T23:14:03.861Z,100556.75
2023-06-04T23:17:06.067Z,100557.81
2023-06-04T23:20:10.094Z,100556.19
2023-06-04T23:23:12.299Z,100558.09
2023-06-04T23:26:14.477Z,100550.25
2023-06-04T23:29:16.677Z,100553.47
2023-06-04T23:32:19.080Z,100558.94
2023-06-04T23:35:21.588Z,100547.78
2023-06-04T23:38:23.938Z,100543.47
2023-06-04T23:41:26.661Z,100548.63
2023-06-04T23:44:29.129Z,100556.00
2023-06-04T23:47:31.482Z,100544.06
2023-06-04T23:50:33.771Z,100548.50
2023-06-04T23:53:36.404Z,100547.66
2023-06-04T23:56:41.331Z,100551.50
2023-06-04T23:59:44.253Z,100548.63
